Time;durP1;ratioP1;P1;durP2;ratioP2;P2;SDS_P1;SDS_P2;PMS_P1;PMS_P2;Temp;Humidity;BMP_temperature;BMP_pressure;BME280_temperature;BME280_humidity;BME280_pressure;Samples;Min_cycle;Max_cycle;Signal;HPM_P1;HPM_P2
2022/08/23 00:01:13;;;;;;;;;2.00;1.00;;;;;;;;5070598;28;45480;-63
2022/08/23 00:03:39;;;;;;;;;1.00;1.00;;;;;;;;5067347;28;45495;-64
2022/08/23 00:06:04;;;;;;;;;0.00;0.00;;;;;;;;5061155;28;46519;-64
2022/08/23 00:08:30;;;;;;;;;0.00;0.00;;;;;;;;5054442;28;46888;-63
2022/08/23 00:10:56;;;;;;;;;1.00;1.00;;;;;;;;5061721;28;45412;-63
2022/08/23 00:13:21;;;;;;;;;0.67;0.67;;;;;;;;5053178;28;45457;-62
2022/08/23 00:15:46;;;;;;;;;0.00;0.00;;;;;;;;5059590;28;46471;-62
2022/08/23 00:18:13;;;;;;;;;0.00;0.00;;;;;;;;5055381;28;45534;-61
2022/08/23 00:20:38;;;;;;;;;1.00;0.00;;;;;;;;5036881;28;45430;-62
2022/08/23 00:23:03;;;;;;;;;1.00;1.00;;;;;;;;5054877;28;45520;-62
2022/08/23 00:25:29;;;;;;;;;0.00;0.00;;;;;;;;5036650;28;48291;-65
2022/08/23 00:27:54;;;;;;;;;0.33;0.33;;;;;;;;5054631;28;45531;-64
2022/08/23 00:30:19;;;;;;;;;1.00;1.00;;;;;;;;5055168;28;45464;-63
2022/08/23 00:32:45;;;;;;;;;2.00;0.00;;;;;;;;5059578;28;45384;-62
2022/08/23 00:35:11;;;;;;;;;1.00;0.00;;;;;;;;5050327;28;47858;-62
2022/08/23 00:37:37;;;;;;;;;1.00;1.00;;;;;;;;5066517;28;45547;-62
2022/08/23 00:40:03;;;;;;;;;1.00;1.00;;;;;;;;5043103;28;45374;-63
2022/08/23 00:48:15;;;;;;;;;1.00;1.00;;;;;;;;5071202;27;45493;-62
2022/08/23 00:50:52;;;;;;;;;1.33;1.33;;;;;;;;5075504;28;45511;-63
2022/08/23 00:53:22;;;;;;;;;3.33;1.00;;;;;;;;5075580;28;45291;-62
2022/08/23 00:55:49;;;;;;;;;1.00;0.00;;;;;;;;5056091;28;47593;-63
2022/08/23 00:58:15;;;;;;;;;0.25;0.25;;;;;;;;5057081;28;45591;-63
2022/08/23 01:00:41;;;;;;;;;1.00;1.00;;;;;;;;5057221;28;45381;-61
2022/08/23 01:03:08;;;;;;;;;1.50;1.50;;;;;;;;5056867;28;45408;-62
2022/08/23 01:05:56;;;;;;;;;0.00;0.00;;;;;;;;5057000;28;48460;-62
2022/08/23 01:08:23;;;;;;;;;2.00;0.00;;;;;;;;5061297;28;45451;-62
2022/08/23 01:10:52;;;;;;;;;2.00;0.67;;;;;;;;5075439;28;45346;-62
2022/08/23 01:13:35;;;;;;;;;3.67;2.00;;;;;;;;5057263;28;45452;-62
2022/08/23 01:16:15;;;;;;;;;0.00;0.00;;;;;;;;5075771;28;45849;-62
2022/08/23 01:18:41;;;;;;;;;1.00;1.00;;;;;;;;5075655;28;45434;-62
2022/08/23 01:21:29;;;;;;;;;1.00;0.00;;;;;;;;5057472;28;45427;-62
2022/08/23 01:23:56;;;;;;;;;0.00;0.00;;;;;;;;5054730;28;45506;-63
2022/08/23 01:26:23;;;;;;;;;1.00;1.00;;;;;;;;5057045;28;47800;-62
2022/08/23 01:28:50;;;;;;;;;0.33;0.33;;;;;;;;5056956;28;46047;-63
2022/08/23 01:31:15;;;;;;;;;1.00;1.00;;;;;;;;5075566;27;45428;-62
2022/08/23 01:33:41;;;;;;;;;1.00;1.00;;;;;;;;5057342;28;45335;-63
2022/08/23 01:36:11;;;;;;;;;1.00;1.00;;;;;;;;5057028;28;48523;-63
2022/08/23 01:38:36;;;;;;;;;1.00;1.00;;;;;;;;5075361;27;45477;-63
2022/08/23 01:41:02;;;;;;;;;0.00;0.00;;;;;;;;5075384;28;46108;-63
2022/08/23 01:43:28;;;;;;;;;0.75;0.75;;;;;;;;5075063;28;45278;-63
2022/08/23 01:45:54;;;;;;;;;1.00;1.00;;;;;;;;5056911;28;47459;-63
2022/08/23 01:48:20;;;;;;;;;1.00;1.00;;;;;;;;5075138;28;45425;-63
2022/08/23 01:50:45;;;;;;;;;0.00;0.00;;;;;;;;5056713;28;45353;-63
2022/08/23 01:53:11;;;;;;;;;0.00;0.00;;;;;;;;5075089;28;45304;-63
2022/08/23 01:55:38;;;;;;;;;1.00;1.00;;;;;;;;5091364;27;46591;-64
2022/08/23 01:58:04;;;;;;;;;1.00;1.00;;;;;;;;5095432;27;45412;-63
2022/08/23 02:00:31;;;;;;;;;0.67;0.67;;;;;;;;5095530;27;45352;-63
2022/08/23 02:02:58;;;;;;;;;1.33;1.33;;;;;;;;5077022;27;45417;-63
2022/08/23 02:05:23;;;;;;;;;2.00;1.00;;;;;;;;5094789;27;46393;-64
2022/08/23 02:07:48;;;;;;;;;0.00;0.00;;;;;;;;5095574;27;45298;-63
2022/08/23 02:10:14;;;;;;;;;1.00;1.00;;;;;;;;5077539;27;45450;-61
2022/08/23 02:12:40;;;;;;;;;0.00;0.00;;;;;;;;5077488;27;45462;-62
2022/08/23 02:15:05;;;;;;;;;0.00;0.00;;;;;;;;5077273;27;47643;-62
2022/08/23 02:17:31;;;;;;;;;0.00;0.00;;;;;;;;5077389;27;46589;-62
2022/08/23 02:19:56;;;;;;;;;1.00;1.00;;;;;;;;5077443;27;45941;-62
2022/08/23 02:22:21;;;;;;;;;1.00;0.00;;;;;;;;5077480;27;45232;-62
2022/08/23 02:24:47;;;;;;;;;0.00;0.00;;;;;;;;5077104;27;48458;-62
2022/08/23 02:27:14;;;;;;;;;0.33;0.33;;;;;;;;5077280;27;45462;-62
2022/08/23 02:29:39;;;;;;;;;1.00;1.00;;;;;;;;5077327;27;45448;-62
2022/08/23 02:32:05;;;;;;;;;1.00;1.00;;;;;;;;5077125;27;45364;-63
2022/08/23 02:34:30;;;;;;;;;0.00;0.00;;;;;;;;5077081;27;46165;-63
2022/08/23 02:36:56;;;;;;;;;0.00;0.00;;;;;;;;5077036;27;46453;-63
2022/08/23 02:39:21;;;;;;;;;0.00;0.00;;;;;;;;5077445;27;45397;-62
2022/08/23 02:41:46;;;;;;;;;0.67;0.67;;;;;;;;5076669;27;45317;-63
2022/08/23 02:44:12;;;;;;;;;0.00;0.00;;;;;;;;5094603;27;45752;-63
2022/08/23 02:46:37;;;;;;;;;0.00;0.00;;;;;;;;5076634;27;45482;-63
2022/08/23 02:49:03;;;;;;;;;0.00;0.00;;;;;;;;5076433;27;45344;-63
2022/08/23 02:51:28;;;;;;;;;0.00;0.00;;;;;;;;5094733;27;45427;-63
2022/08/23 02:53:53;;;;;;;;;0.00;0.00;;;;;;;;5076283;27;48346;-62
2022/08/23 02:56:19;;;;;;;;;0.00;0.00;;;;;;;;5076507;27;46488;-62
2022/08/23 02:58:44;;;;;;;;;0.00;0.00;;;;;;;;5076530;27;45159;-62
2022/08/23 03:01:17;;;;;;;;;0.00;0.00;;;;;;;;5076568;27;45594;-62
2022/08/23 03:03:42;;;;;;;;;0.00;0.00;;;;;;;;5076152;27;47592;-62
2022/08/23 03:06:07;;;;;;;;;0.33;0.33;;;;;;;;5076072;27;45444;-62
2022/08/23 03:08:33;;;;;;;;;0.00;0.00;;;;;;;;5094823;27;45335;-62
2022/08/23 03:10:58;;;;;;;;;0.00;0.00;;;;;;;;5094651;27;45406;-62
2022/08/23 03:13:23;;;;;;;;;1.00;1.00;;;;;;;;5094349;27;46103;-62
2022/08/23 03:15:48;;;;;;;;;0.00;0.00;;;;;;;;5076223;27;45374;-62
2022/08/23 03:18:14;;;;;;;;;0.00;0.00;;;;;;;;5077048;27;45227;-62
2022/08/23 03:20:40;;;;;;;;;0.00;0.00;;;;;;;;5096821;27;45473;-62
2022/08/23 03:23:06;;;;;;;;;0.33;0.33;;;;;;;;5095772;27;46452;-62
2022/08/23 03:25:31;;;;;;;;;0.33;0.33;;;;;;;;5078639;27;45404;-63
2022/08/23 03:27:57;;;;;;;;;0.00;0.00;;;;;;;;5078348;27;45451;-62
2022/08/23 03:30:22;;;;;;;;;2.00;1.00;;;;;;;;5078842;27;45699;-62
2022/08/23 03:32:47;;;;;;;;;0.33;0.33;;;;;;;;5097750;27;46854;-62
2022/08/23 03:35:12;;;;;;;;;0.00;0.00;;;;;;;;5078801;27;46195;-62
2022/08/23 03:37:38;;;;;;;;;1.00;1.00;;;;;;;;5079394;27;45419;-61
2022/08/23 03:40:06;;;;;;;;;0.00;0.00;;;;;;;;5078873;27;45395;-62
2022/08/23 03:42:31;;;;;;;;;1.00;1.00;;;;;;;;5078586;27;48577;-62
2022/08/23 03:44:56;;;;;;;;;0.67;0.67;;;;;;;;5079119;27;45773;-62
2022/08/23 03:47:22;;;;;;;;;0.00;0.00;;;;;;;;5097725;27;45501;-61
2022/08/23 03:49:47;;;;;;;;;1.00;1.00;;;;;;;;5079263;27;45514;-62
2022/08/23 03:52:13;;;;;;;;;1.00;1.00;;;;;;;;5097283;27;46505;-62
2022/08/23 03:54:39;;;;;;;;;0.00;0.00;;;;;;;;5078971;27;45474;-62
2022/08/23 03:57:06;;;;;;;;;1.00;1.00;;;;;;;;5078954;27;45382;-62
2022/08/23 03:59:33;;;;;;;;;1.67;1.33;;;;;;;;5078640;27;45367;-62
2022/08/23 04:01:58;;;;;;;;;1.00;1.00;;;;;;;;5097227;27;46223;-63
2022/08/23 04:04:24;;;;;;;;;1.00;1.00;;;;;;;;5097224;27;45419;-62
2022/08/23 04:06:49;;;;;;;;;1.67;1.67;;;;;;;;5097475;27;45327;-62
2022/08/23 04:09:14;;;;;;;;;0.67;0.67;;;;;;;;5078984;27;45647;-62
2022/08/23 04:11:40;;;;;;;;;1.00;1.00;;;;;;;;5097070;27;45786;-62
2022/08/23 04:14:06;;;;;;;;;1.00;1.00;;;;;;;;5078736;27;45452;-63
2022/08/23 04:16:36;;;;;;;;;1.00;1.00;;;;;;;;5097233;27;45906;-63
2022/08/23 04:19:06;;;;;;;;;1.00;1.00;;;;;;;;5058377;28;45399;-63
2022/08/23 04:21:31;;;;;;;;;2.00;2.00;;;;;;;;5073806;28;47559;-63
2022/08/23 04:23:56;;;;;;;;;1.00;1.00;;;;;;;;5075516;28;45725;-63
2022/08/23 04:26:22;;;;;;;;;1.67;1.67;;;;;;;;5075154;28;45528;-62
2022/08/23 04:28:47;;;;;;;;;1.00;1.00;;;;;;;;5075019;28;45907;-62
2022/08/23 04:31:13;;;;;;;;;0.67;0.00;;;;;;;;5057501;28;47568;-62
2022/08/23 04:33:39;;;;;;;;;1.00;1.00;;;;;;;;5076290;28;45875;-62
2022/08/23 04:36:04;;;;;;;;;1.00;1.00;;;;;;;;5058834;28;45414;-62
2022/08/23 04:38:29;;;;;;;;;1.00;1.00;;;;;;;;5058787;28;45600;-63
2022/08/23 04:43:39;;;;;;;;;2.00;1.00;;;;;;;;5076463;27;45333;-62
2022/08/23 04:46:05;;;;;;;;;1.00;1.00;;;;;;;;5075304;27;45484;-63
2022/08/23 04:48:30;;;;;;;;;1.00;0.33;;;;;;;;5071668;28;45541;-63
2022/08/23 04:50:55;;;;;;;;;0.67;0.67;;;;;;;;5061952;27;45622;-63
2022/08/23 04:53:21;;;;;;;;;1.33;1.00;;;;;;;;5077431;27;45416;-63
2022/08/23 04:55:46;;;;;;;;;1.33;1.33;;;;;;;;5097148;27;45389;-63
2022/08/23 04:58:11;;;;;;;;;1.00;1.00;;;;;;;;5097093;27;45831;-62
2022/08/23 05:00:36;;;;;;;;;1.00;1.00;;;;;;;;5077916;27;47171;-63
2022/08/23 05:03:01;;;;;;;;;1.00;1.00;;;;;;;;5096857;27;45342;-62
2022/08/23 05:05:27;;;;;;;;;2.67;1.00;;;;;;;;5078484;27;45342;-62
2022/08/23 05:07:52;;;;;;;;;0.67;0.00;;;;;;;;5096960;27;45407;-62
2022/08/23 05:10:17;;;;;;;;;1.00;1.00;;;;;;;;5096760;27;46247;-62
2022/08/23 05:12:43;;;;;;;;;2.00;2.00;;;;;;;;5078320;27;46125;-62
2022/08/23 05:15:08;;;;;;;;;2.25;2.00;;;;;;;;5064022;27;45407;-62
2022/08/23 05:17:34;;;;;;;;;2.67;2.00;;;;;;;;5055866;28;45433;-61
2022/08/23 05:20:00;;;;;;;;;1.33;1.33;;;;;;;;5036150;28;48794;-62
2022/08/23 05:22:25;;;;;;;;;3.00;2.00;;;;;;;;5058924;27;47186;-63
2022/08/23 05:24:51;;;;;;;;;1.00;1.00;;;;;;;;5043857;27;45446;-62
2022/08/23 05:27:16;;;;;;;;;2.00;1.00;;;;;;;;5060632;27;45760;-62
2022/08/23 05:29:41;;;;;;;;;1.00;1.00;;;;;;;;5063511;27;46307;-64
2022/08/23 05:32:06;;;;;;;;;1.00;1.00;;;;;;;;5072247;28;45647;-63
2022/08/23 05:34:31;;;;;;;;;2.00;1.00;;;;;;;;5076178;28;45460;-63
2022/08/23 05:36:57;;;;;;;;;2.00;2.00;;;;;;;;5076129;28;45483;-63
2022/08/23 05:39:22;;;;;;;;;1.00;1.00;;;;;;;;5075273;27;47104;-63
2022/08/23 05:41:47;;;;;;;;;1.33;1.33;;;;;;;;5066313;27;45628;-63
2022/08/23 05:44:13;;;;;;;;;2.25;2.00;;;;;;;;5055109;28;45401;-63
2022/08/23 05:46:38;;;;;;;;;1.75;1.75;;;;;;;;5036891;28;45493;-63
2022/08/23 05:49:04;;;;;;;;;2.50;2.00;;;;;;;;5053689;28;48822;-63
2022/08/23 05:51:30;;;;;;;;;1.50;1.50;;;;;;;;5071073;27;45399;-63
2022/08/23 05:53:57;;;;;;;;;2.00;1.00;;;;;;;;5077838;27;45346;-62
2022/08/23 05:56:27;;;;;;;;;2.00;2.00;;;;;;;;5096245;27;45652;-63
2022/08/23 05:58:54;;;;;;;;;2.00;2.00;;;;;;;;5077492;27;47723;-63
2022/08/23 06:01:19;;;;;;;;;1.00;1.00;;;;;;;;5095144;27;45417;-63
2022/08/23 06:03:45;;;;;;;;;3.00;3.00;;;;;;;;5077419;27;45432;-63
2022/08/23 06:06:11;;;;;;;;;1.67;1.67;;;;;;;;5095639;27;45416;-62
2022/08/23 06:08:38;;;;;;;;;3.25;1.75;;;;;;;;5077528;27;48713;-63
2022/08/23 06:11:06;;;;;;;;;1.67;1.67;;;;;;;;5077297;27;46414;-62
2022/08/23 06:13:32;;;;;;;;;2.00;1.75;;;;;;;;5075615;27;45492;-63
2022/08/23 06:15:57;;;;;;;;;2.00;2.00;;;;;;;;5095848;27;45327;-64
2022/08/23 06:18:23;;;;;;;;;2.50;2.00;;;;;;;;5077296;27;48556;-62
2022/08/23 06:20:57;;;;;;;;;1.00;1.00;;;;;;;;5077308;27;46375;-61
2022/08/23 06:23:22;;;;;;;;;1.00;1.00;;;;;;;;5077443;27;45459;-65
2022/08/23 06:25:47;;;;;;;;;2.50;2.50;;;;;;;;5095480;27;45547;-63
2022/08/23 06:28:12;;;;;;;;;3.00;3.00;;;;;;;;5095673;27;46353;-63
2022/08/23 06:30:38;;;;;;;;;2.00;2.00;;;;;;;;5095647;27;45443;-62
2022/08/23 06:33:03;;;;;;;;;2.00;2.00;;;;;;;;5092995;27;45344;-61
2022/08/23 06:35:28;;;;;;;;;2.00;2.00;;;;;;;;5075007;27;45365;-62
2022/08/23 06:37:54;;;;;;;;;2.00;2.00;;;;;;;;5056386;28;47390;-61
2022/08/23 06:40:19;;;;;;;;;2.33;2.00;;;;;;;;5056404;28;46008;-61
2022/08/23 06:42:44;;;;;;;;;3.00;3.00;;;;;;;;5075172;28;45332;-62
2022/08/23 06:45:09;;;;;;;;;2.00;2.00;;;;;;;;5074711;28;45443;-62
2022/08/23 06:47:35;;;;;;;;;4.00;3.67;;;;;;;;5056002;28;49024;-62
2022/08/23 06:50:00;;;;;;;;;3.00;3.00;;;;;;;;5074751;28;45423;-63
2022/08/23 06:52:28;;;;;;;;;2.67;2.67;;;;;;;;5089645;27;45373;-62
2022/08/23 06:54:54;;;;;;;;;2.33;2.33;;;;;;;;5089833;27;45385;-62
2022/08/23 06:57:19;;;;;;;;;2.00;2.00;;;;;;;;5059496;28;47529;-63
2022/08/23 06:59:44;;;;;;;;;3.00;2.75;;;;;;;;5078142;27;45413;-61
2022/08/23 07:02:11;;;;;;;;;2.33;2.33;;;;;;;;5078229;28;45421;-61
2022/08/23 07:04:38;;;;;;;;;2.00;2.00;;;;;;;;5077698;28;45411;-60
2022/08/23 07:07:04;;;;;;;;;1.33;1.33;;;;;;;;5059731;28;47885;-62
2022/08/23 07:09:30;;;;;;;;;2.00;2.00;;;;;;;;5059915;28;45580;-61
2022/08/23 07:11:55;;;;;;;;;2.00;2.00;;;;;;;;5078254;28;45404;-60
2022/08/23 07:14:21;;;;;;;;;3.67;2.33;;;;;;;;5077769;27;45313;-61
2022/08/23 07:16:51;;;;;;;;;2.00;2.00;;;;;;;;5077958;27;45516;-61
2022/08/23 07:19:17;;;;;;;;;1.00;1.00;;;;;;;;5059750;28;45484;-61
2022/08/23 07:21:42;;;;;;;;;2.50;1.75;;;;;;;;5059656;28;45384;-61
2022/08/23 07:24:08;;;;;;;;;1.33;1.33;;;;;;;;5077930;27;45403;-61
2022/08/23 07:26:35;;;;;;;;;1.00;1.00;;;;;;;;5077730;28;46613;-61
2022/08/23 07:29:02;;;;;;;;;1.67;1.00;;;;;;;;5077934;27;45408;-61
2022/08/23 07:31:29;;;;;;;;;1.67;1.67;;;;;;;;5077836;27;45675;-61
2022/08/23 07:33:56;;;;;;;;;1.00;1.00;;;;;;;;5078005;28;45335;-60
2022/08/23 07:36:23;;;;;;;;;1.67;1.67;;;;;;;;5059283;28;48340;-61
2022/08/23 07:38:48;;;;;;;;;1.67;1.67;;;;;;;;5077673;28;45413;-61
2022/08/23 07:41:14;;;;;;;;;1.67;1.67;;;;;;;;5059422;28;45359;-61
2022/08/23 07:43:40;;;;;;;;;1.00;1.00;;;;;;;;5059411;28;45483;-61
2022/08/23 07:46:05;;;;;;;;;3.00;3.00;;;;;;;;5059057;28;47391;-62
2022/08/23 07:48:32;;;;;;;;;1.00;1.00;;;;;;;;5077266;28;45332;-61
2022/08/23 07:50:58;;;;;;;;;2.67;2.67;;;;;;;;5060101;28;45403;-61
2022/08/23 07:53:23;;;;;;;;;3.00;3.00;;;;;;;;5058540;28;45588;-62
2022/08/23 07:55:49;;;;;;;;;3.25;2.00;;;;;;;;5076932;28;45823;-61
2022/08/23 07:58:14;;;;;;;;;3.00;3.00;;;;;;;;5059050;28;45408;-61
2022/08/23 08:00:40;;;;;;;;;3.00;3.00;;;;;;;;5077623;28;45340;-61
2022/08/23 08:03:05;;;;;;;;;3.00;3.00;;;;;;;;5059013;28;45547;-61
2022/08/23 08:05:31;;;;;;;;;2.00;2.00;;;;;;;;5058243;28;48900;-61
2022/08/23 08:07:56;;;;;;;;;1.00;1.00;;;;;;;;5059040;28;45477;-61
2022/08/23 08:10:21;;;;;;;;;2.50;2.50;;;;;;;;5077297;28;45306;-61
2022/08/23 08:12:46;;;;;;;;;3.00;3.00;;;;;;;;5058710;28;45540;-61
2022/08/23 08:15:11;;;;;;;;;2.00;2.00;;;;;;;;5077036;28;47462;-61
2022/08/23 08:17:37;;;;;;;;;2.25;2.25;;;;;;;;5063117;28;45911;-61
2022/08/23 08:20:02;;;;;;;;;3.00;2.00;;;;;;;;5076213;28;45512;-61
2022/08/23 08:22:28;;;;;;;;;2.00;2.00;;;;;;;;5059059;28;45290;-61
2022/08/23 08:24:53;;;;;;;;;3.00;3.00;;;;;;;;5076870;27;46430;-60
2022/08/23 08:27:18;;;;;;;;;2.00;2.00;;;;;;;;5075870;28;45487;-61
2022/08/23 08:29:43;;;;;;;;;2.00;2.00;;;;;;;;5058795;28;45898;-60
2022/08/23 08:32:08;;;;;;;;;2.00;2.00;;;;;;;;5076895;28;45396;-62
2022/08/23 08:34:34;;;;;;;;;2.00;2.00;;;;;;;;5058234;28;48817;-61
2022/08/23 08:37:00;;;;;;;;;2.00;2.00;;;;;;;;5076587;28;45540;-62
2022/08/23 08:39:27;;;;;;;;;3.00;1.67;;;;;;;;5077018;28;45338;-62
2022/08/23 08:42:11;;;;;;;;;1.50;1.50;;;;;;;;5057947;28;45619;-61
2022/08/23 08:44:39;;;;;;;;;1.67;1.67;;;;;;;;5058090;28;47780;-60
2022/08/23 08:47:20;;;;;;;;;2.00;2.00;;;;;;;;5057955;28;45501;-61
2022/08/23 08:50:04;;;;;;;;;2.00;2.00;;;;;;;;5076384;28;45345;-60
2022/08/23 08:52:31;;;;;;;;;3.67;2.67;;;;;;;;5058960;28;45477;-61
2022/08/23 08:55:02;;;;;;;;;1.00;1.00;;;;;;;;5043379;27;48003;-62
2022/08/23 08:57:30;;;;;;;;;2.67;2.67;;;;;;;;5078125;27;46291;-62
2022/08/23 09:00:01;;;;;;;;;2.00;2.00;;;;;;;;5078325;27;45421;-61
2022/08/23 09:02:28;;;;;;;;;2.75;2.00;;;;;;;;5076744;27;45381;-61
2022/08/23 09:04:54;;;;;;;;;2.00;2.00;;;;;;;;5075869;28;45764;-61
2022/08/23 09:07:57;;;;;;;;;3.67;2.33;;;;;;;;5076263;28;45350;-61
2022/08/23 09:10:29;;;;;;;;;2.33;1.67;;;;;;;;4974262;28;45468;-61
2022/08/23 09:12:57;;;;;;;;;3.25;2.25;;;;;;;;4957374;28;45584;-61
2022/08/23 09:15:37;;;;;;;;;3.00;3.00;;;;;;;;4969150;28;48662;-61
2022/08/23 09:18:14;;;;;;;;;3.00;3.00;;;;;;;;4957137;28;46374;-61
2022/08/23 09:20:40;;;;;;;;;1.33;1.33;;;;;;;;4973883;28;45503;-61
2022/08/23 09:23:11;;;;;;;;;2.33;2.33;;;;;;;;4973904;28;45432;-62
2022/08/23 09:25:37;;;;;;;;;1.00;1.00;;;;;;;;4957299;28;47406;-61
2022/08/23 09:28:02;;;;;;;;;1.67;1.67;;;;;;;;4973419;28;45361;-61
2022/08/23 09:31:00;;;;;;;;;3.00;3.00;;;;;;;;4974144;28;45399;-61
2022/08/23 09:33:35;;;;;;;;;2.00;2.00;;;;;;;;4935156;28;45497;-63
2022/08/23 09:36:03;;;;;;;;;2.00;2.00;;;;;;;;4918697;28;47622;-64
2022/08/23 09:38:29;;;;;;;;;3.00;3.00;;;;;;;;4934882;28;45399;-63
2022/08/23 09:40:54;;;;;;;;;3.50;3.50;;;;;;;;4949633;28;45627;-64
2022/08/23 09:43:22;;;;;;;;;4.00;4.00;;;;;;;;5013294;28;45385;-63
2022/08/23 09:45:47;;;;;;;;;2.33;2.33;;;;;;;;5030398;28;46454;-62
2022/08/23 09:48:14;;;;;;;;;3.00;3.00;;;;;;;;5032665;28;45634;-63
2022/08/23 09:50:53;;;;;;;;;3.00;3.00;;;;;;;;5032658;28;45538;-62
2022/08/23 09:53:22;;;;;;;;;4.00;3.00;;;;;;;;5032291;28;45317;-62
2022/08/23 09:55:49;;;;;;;;;2.33;2.00;;;;;;;;5015966;28;47678;-63
2022/08/23 09:58:35;;;;;;;;;2.33;2.33;;;;;;;;5032318;28;45511;-62
2022/08/23 10:01:06;;;;;;;;;2.67;2.67;;;;;;;;4997773;28;45374;-64
2022/08/23 10:03:31;;;;;;;;;3.00;3.00;;;;;;;;5012652;28;45382;-63
2022/08/23 10:05:58;;;;;;;;;3.00;3.00;;;;;;;;4995471;28;48603;-60
2022/08/23 10:08:26;;;;;;;;;5.00;3.75;;;;;;;;5022868;28;45504;-61
2022/08/23 10:10:52;;;;;;;;;1.00;1.00;;;;;;;;5038257;28;45420;-61
2022/08/23 10:13:19;;;;;;;;;1.25;1.00;;;;;;;;5056594;28;45353;-61
2022/08/23 10:16:03;;;;;;;;;2.50;2.50;;;;;;;;5056698;28;48589;-61
2022/08/23 10:18:44;;;;;;;;;1.75;1.75;;;;;;;;5074713;27;45329;-62
2022/08/23 10:21:09;;;;;;;;;2.00;2.00;;;;;;;;5055087;28;45534;-61
2022/08/23 10:23:42;;;;;;;;;2.00;2.00;;;;;;;;5074583;27;45382;-62
2022/08/23 10:26:15;;;;;;;;;2.00;2.00;;;;;;;;5055781;28;47732;-62
2022/08/23 10:31:51;;;;;;;;;1.50;1.50;;;;;;;;5080598;27;45482;-62
2022/08/23 10:34:23;;;;;;;;;4.00;2.00;;;;;;;;5048429;28;45391;-60
2022/08/23 10:37:11;;;;;;;;;1.00;1.00;;;;;;;;5052380;28;48669;-62
2022/08/23 10:39:42;;;;;;;;;1.00;1.00;;;;;;;;5058973;28;45644;-62
2022/08/23 10:42:32;;;;;;;;;1.00;1.00;;;;;;;;5073823;27;45917;-63
2022/08/23 10:45:13;;;;;;;;;0.50;0.50;;;;;;;;5079476;27;45439;-61
2022/08/23 10:47:51;;;;;;;;;1.00;1.00;;;;;;;;5055182;28;48691;-62
2022/08/23 10:50:18;;;;;;;;;0.75;0.75;;;;;;;;5074212;28;45914;-62
2022/08/23 10:52:49;;;;;;;;;0.00;0.00;;;;;;;;5093409;27;45258;-61
2022/08/23 10:55:33;;;;;;;;;0.00;0.00;;;;;;;;5083451;27;45866;-61
2022/08/23 10:58:00;;;;;;;;;0.75;0.75;;;;;;;;5073441;28;45519;-61
2022/08/23 11:00:26;;;;;;;;;0.00;0.00;;;;;;;;5055512;28;46834;-61
2022/08/23 11:03:01;;;;;;;;;1.00;1.00;;;;;;;;5055630;28;45399;-62
2022/08/23 11:05:28;;;;;;;;;0.50;0.50;;;;;;;;5055885;28;45615;-62
2022/08/23 11:08:16;;;;;;;;;0.00;0.00;;;;;;;;5055573;28;48800;-60
2022/08/23 11:10:45;;;;;;;;;0.00;0.00;;;;;;;;5072003;28;45426;-62
2022/08/23 11:13:10;;;;;;;;;0.00;0.00;;;;;;;;5073871;27;45409;-62
2022/08/23 11:15:45;;;;;;;;;0.00;0.00;;;;;;;;5074328;28;45291;-63
2022/08/23 11:18:30;;;;;;;;;0.00;0.00;;;;;;;;5055705;27;48655;-62
2022/08/23 11:20:58;;;;;;;;;0.25;0.25;;;;;;;;5055198;28;45402;-62
2022/08/23 11:23:30;;;;;;;;;0.50;0.50;;;;;;;;5074217;28;45474;-62
2022/08/23 11:25:55;;;;;;;;;0.00;0.00;;;;;;;;5074083;28;45298;-60
2022/08/23 11:28:26;;;;;;;;;0.00;0.00;;;;;;;;5055323;28;46325;-61
2022/08/23 11:30:54;;;;;;;;;0.75;0.75;;;;;;;;5052593;27;45600;-61
2022/08/23 11:33:30;;;;;;;;;0.00;0.00;;;;;;;;5066009;27;45492;-61
2022/08/23 11:36:08;;;;;;;;;1.00;0.00;;;;;;;;5065553;27;45366;-60
2022/08/23 11:38:42;;;;;;;;;1.00;1.00;;;;;;;;5058610;28;48969;-60
2022/08/23 11:41:30;;;;;;;;;1.00;1.00;;;;;;;;5069595;27;45525;-61
2022/08/23 11:43:56;;;;;;;;;0.00;0.00;;;;;;;;5048725;28;45563;-62
2022/08/23 11:46:27;;;;;;;;;0.50;0.50;;;;;;;;5075906;28;45426;-61
2022/08/23 11:49:10;;;;;;;;;0.00;0.00;;;;;;;;5074210;27;46227;-61
2022/08/23 11:52:00;;;;;;;;;1.00;1.00;;;;;;;;5057242;28;45518;-61
2022/08/23 11:54:43;;;;;;;;;0.00;0.00;;;;;;;;5055996;28;45392;-62
2022/08/23 11:57:14;;;;;;;;;1.00;1.00;;;;;;;;5044974;28;45418;-60
2022/08/23 11:59:42;;;;;;;;;1.25;1.25;;;;;;;;5049204;28;48749;-62
2022/08/23 12:02:30;;;;;;;;;0.00;0.00;;;;;;;;5068819;27;45383;-63
2022/08/23 12:04:57;;;;;;;;;0.00;0.00;;;;;;;;5043205;28;45581;-62
2022/08/23 12:07:41;;;;;;;;;1.00;1.00;;;;;;;;5053335;28;45485;-61
2022/08/23 12:10:06;;;;;;;;;0.00;0.00;;;;;;;;5057908;28;47292;-62
2022/08/23 12:12:32;;;;;;;;;0.25;0.25;;;;;;;;5060167;28;45450;-62
2022/08/23 12:14:59;;;;;;;;;0.00;0.00;;;;;;;;5041041;28;45476;-61
2022/08/23 12:17:25;;;;;;;;;1.00;1.00;;;;;;;;5051187;28;45355;-61
2022/08/23 12:19:53;;;;;;;;;0.75;0.75;;;;;;;;5056346;28;46345;-61
2022/08/23 12:22:20;;;;;;;;;0.00;0.00;;;;;;;;5037914;28;45681;-61
2022/08/23 12:24:54;;;;;;;;;1.00;1.00;;;;;;;;5039586;28;45583;-63
2022/08/23 12:27:28;;;;;;;;;0.00;0.00;;;;;;;;5046678;28;45488;-60
2022/08/23 12:29:57;;;;;;;;;0.00;0.00;;;;;;;;5037238;28;49073;-61
2022/08/23 12:32:22;;;;;;;;;0.50;0.50;;;;;;;;5058771;28;45371;-62
2022/08/23 12:35:01;;;;;;;;;1.00;1.00;;;;;;;;5054975;28;45369;-60
2022/08/23 12:37:38;;;;;;;;;2.00;0.00;;;;;;;;5038870;28;45924;-62
2022/08/23 12:40:07;;;;;;;;;0.50;0.50;;;;;;;;5050550;28;46138;-61
2022/08/23 12:42:34;;;;;;;;;0.00;0.00;;;;;;;;5027265;28;45449;-62
2022/08/23 12:45:03;;;;;;;;;0.00;0.00;;;;;;;;5023099;28;45505;-61
2022/08/23 12:47:29;;;;;;;;;1.67;0.00;;;;;;;;5056600;28;45383;-62
2022/08/23 12:49:54;;;;;;;;;1.00;1.00;;;;;;;;5062352;28;46353;-61
2022/08/23 12:52:23;;;;;;;;;0.00;0.00;;;;;;;;5056900;27;45526;-61
2022/08/23 12:54:49;;;;;;;;;0.00;0.00;;;;;;;;5078114;27;45372;-61
2022/08/23 12:57:19;;;;;;;;;0.00;0.00;;;;;;;;5077484;27;45696;-63
2022/08/23 12:59:44;;;;;;;;;0.00;0.00;;;;;;;;5069406;27;45432;-61
2022/08/23 13:02:25;;;;;;;;;0.00;0.00;;;;;;;;5064472;28;45557;-61
2022/08/23 13:04:51;;;;;;;;;0.00;0.00;;;;;;;;5037240;28;45389;-62
2022/08/23 13:07:20;;;;;;;;;0.25;0.25;;;;;;;;5044249;28;45547;-62
2022/08/23 13:09:45;;;;;;;;;0.00;0.00;;;;;;;;5048217;28;46523;-62
2022/08/23 13:12:11;;;;;;;;;1.00;1.00;;;;;;;;5069382;28;45898;-61
2022/08/23 13:14:40;;;;;;;;;0.50;0.50;;;;;;;;5069028;27;45474;-61
2022/08/23 13:17:17;;;;;;;;;0.00;0.00;;;;;;;;5041751;28;45584;-62
2022/08/23 13:19:43;;;;;;;;;0.00;0.00;;;;;;;;5060860;28;45364;-62
2022/08/23 13:22:18;;;;;;;;;0.00;0.00;;;;;;;;5069422;28;45647;-61
2022/08/23 13:24:45;;;;;;;;;0.00;0.00;;;;;;;;5049525;28;45975;-63
2022/08/23 13:27:16;;;;;;;;;0.00;0.00;;;;;;;;5042988;28;45533;-62
2022/08/23 13:30:02;;;;;;;;;1.00;1.00;;;;;;;;5055392;28;47745;-61
2022/08/23 13:32:33;;;;;;;;;0.25;0.25;;;;;;;;5072659;28;45449;-61
2022/08/23 13:35:17;;;;;;;;;0.75;0.75;;;;;;;;5065056;28;45592;-64
2022/08/23 13:37:46;;;;;;;;;0.00;0.00;;;;;;;;5067822;28;45466;-61
2022/08/23 13:40:21;;;;;;;;;0.00;0.00;;;;;;;;5081962;27;46786;-62
2022/08/23 13:42:48;;;;;;;;;0.00;0.00;;;;;;;;5076196;27;45546;-62
2022/08/23 13:45:15;;;;;;;;;0.00;0.00;;;;;;;;5076989;27;45473;-62
2022/08/23 13:47:50;;;;;;;;;0.00;0.00;;;;;;;;5095579;27;45415;-61
2022/08/23 13:50:22;;;;;;;;;0.00;0.00;;;;;;;;5076120;27;47605;-62
2022/08/23 13:52:47;;;;;;;;;0.00;0.00;;;;;;;;5056706;28;46154;-63
2022/08/23 13:55:13;;;;;;;;;0.00;0.00;;;;;;;;5055451;28;45461;-61
2022/08/23 13:57:39;;;;;;;;;1.00;1.00;;;;;;;;5056875;28;45514;-62
2022/08/23 14:00:08;;;;;;;;;0.00;0.00;;;;;;;;5056499;28;47351;-61
2022/08/23 14:02:33;;;;;;;;;0.00;0.00;;;;;;;;5074178;27;45421;-61
2022/08/23 14:04:58;;;;;;;;;0.00;0.00;;;;;;;;5073587;28;46031;-61
2022/08/23 14:07:24;;;;;;;;;0.67;0.67;;;;;;;;5074758;27;46077;-62
2022/08/23 14:09:49;;;;;;;;;0.00;0.00;;;;;;;;5074713;27;45827;-63
2022/08/23 14:12:17;;;;;;;;;0.00;0.00;;;;;;;;5063771;28;45776;-62
2022/08/23 14:14:42;;;;;;;;;0.00;0.00;;;;;;;;5056632;28;45417;-60
2022/08/23 14:17:08;;;;;;;;;0.00;0.00;;;;;;;;5039723;28;45505;-60
2022/08/23 14:19:34;;;;;;;;;0.50;0.50;;;;;;;;5056274;27;48569;-61
2022/08/23 14:21:59;;;;;;;;;0.00;0.00;;;;;;;;5074501;27;45428;-62
2022/08/23 14:24:25;;;;;;;;;0.67;0.67;;;;;;;;5075206;27;45436;-62
2022/08/23 14:26:51;;;;;;;;;0.00;0.00;;;;;;;;5095631;27;45379;-61
2022/08/23 14:29:16;;;;;;;;;0.00;0.00;;;;;;;;5094563;27;46237;-60
2022/08/23 14:31:41;;;;;;;;;0.00;0.00;;;;;;;;5093873;27;45641;-61
2022/08/23 14:34:06;;;;;;;;;0.00;0.00;;;;;;;;5075737;27;45493;-61
2022/08/23 14:36:31;;;;;;;;;0.00;0.00;;;;;;;;5095217;27;45475;-62
2022/08/23 14:38:57;;;;;;;;;0.00;0.00;;;;;;;;5094556;27;46370;-61
2022/08/23 14:41:24;;;;;;;;;0.00;0.00;;;;;;;;5095016;27;45368;-62
2022/08/23 14:43:49;;;;;;;;;0.00;0.00;;;;;;;;5095088;27;45367;-61
2022/08/23 14:46:14;;;;;;;;;0.00;0.00;;;;;;;;5074651;27;45646;-61
2022/08/23 14:48:40;;;;;;;;;0.00;0.00;;;;;;;;5083181;27;46352;-62
2022/08/23 14:51:10;;;;;;;;;1.33;0.33;;;;;;;;5072477;27;46107;-61
2022/08/23 14:53:36;;;;;;;;;0.00;0.00;;;;;;;;5071599;27;45373;-62
2022/08/23 14:56:01;;;;;;;;;0.00;0.00;;;;;;;;5065235;27;45402;-61
2022/08/23 14:58:27;;;;;;;;;2.00;0.33;;;;;;;;5086047;27;46319;-62
2022/08/23 15:00:52;;;;;;;;;0.00;0.00;;;;;;;;5082857;27;45382;-61